createdAt,value
2017-11-01T00:01:51.451Z,22.97
2017-11-01T00:04:18.772Z,20.93
2017-11-01T00:06:46.451Z,18.97
2017-11-01T00:09:13.814Z,18.20
2017-11-01T00:11:41.157Z,19.67
2017-11-01T00:14:08.525Z,17.80
2017-11-01T00:16:35.895Z,19.40
2017-11-01T00:19:03.249Z,19.53
2017-11-01T00:21:30.561Z,22.73
2017-11-01T00:23:58.022Z,22.10
2017-11-01T00:26:25.343Z,21.20
2017-11-01T00:28:52.652Z,20.50
2017-11-01T00:31:20.001Z,24.40
2017-11-01T00:33:47.309Z,28.90
2017-11-01T00:36:14.633Z,24.70
2017-11-01T00:38:41.932Z,24.33
2017-11-01T00:41:09.360Z,19.33
2017-11-01T00:43:36.661Z,25.97
2017-11-01T00:46:04.042Z,24.23
2017-11-01T00:48:31.680Z,28.43
2017-11-01T00:50:59.828Z,21.73
2017-11-01T00:53:27.148Z,28.17
2017-11-01T00:55:54.452Z,24.97
2017-11-01T00:58:21.814Z,26.27
2017-11-01T01:00:49.172Z,28.30
2017-11-01T01:03:16.516Z,25.30
2017-11-01T01:05:43.837Z,28.07
2017-11-01T01:08:11.245Z,31.97
2017-11-01T01:10:38.545Z,24.43
2017-11-01T01:13:05.913Z,25.60
2017-11-01T01:15:33.557Z,32.20
2017-11-01T01:18:01.214Z,25.00
2017-11-01T01:20:28.501Z,28.10
2017-11-01T01:22:55.825Z,27.20
2017-11-01T01:25:23.135Z,30.63
2017-11-01T01:27:50.456Z,22.07
2017-11-01T01:30:18.088Z,29.23
2017-11-01T01:32:47.363Z,37.33
2017-11-01T01:35:14.682Z,28.70
2017-11-01T01:37:43.086Z,30.30
2017-11-01T01:40:10.840Z,35.10
2017-11-01T01:42:38.149Z,35.90
2017-11-01T01:45:05.489Z,32.90
2017-11-01T01:47:32.792Z,30.70
2017-11-01T01:50:00.123Z,33.47
2017-11-01T01:52:27.425Z,43.80
2017-11-01T01:54:54.791Z,34.30
2017-11-01T01:57:22.117Z,29.87
2017-11-01T01:59:50.382Z,40.20
2017-11-01T02:02:17.686Z,33.40
2017-11-01T02:04:45.008Z,36.53
2017-11-01T02:07:12.310Z,35.50
2017-11-01T02:09:39.637Z,43.80
2017-11-01T02:12:06.941Z,35.10
2017-11-01T02:14:35.025Z,35.60
2017-11-01T02:17:02.532Z,36.90
2017-11-01T02:19:30.710Z,39.50
2017-11-01T02:21:58.029Z,33.80
2017-11-01T02:24:25.344Z,32.87
2017-11-01T02:26:52.665Z,38.77
2017-11-01T02:29:19.973Z,38.13
2017-11-01T02:31:47.293Z,34.17
2017-11-01T02:34:14.605Z,38.30
2017-11-01T02:36:41.920Z,38.43
2017-11-01T02:39:09.260Z,33.50
2017-11-01T02:41:36.738Z,39.63
2017-11-01T02:44:04.042Z,37.50
2017-11-01T02:46:31.784Z,39.70
2017-11-01T02:48:59.104Z,35.90
2017-11-01T02:51:26.410Z,37.87
2017-11-01T02:53:53.730Z,41.03
2017-11-01T02:56:21.038Z,43.97
2017-11-01T02:58:48.356Z,40.90
2017-11-01T03:01:15.666Z,44.27
2017-11-01T03:03:42.990Z,40.13
2017-11-01T03:06:10.301Z,43.20
2017-11-01T03:08:37.680Z,38.53
2017-11-01T03:11:05.037Z,42.93
2017-11-01T03:13:32.366Z,39.43
2017-11-01T03:15:59.669Z,42.40
2017-11-01T03:18:29.101Z,44.17
2017-11-01T03:20:56.425Z,45.27
2017-11-01T03:23:23.743Z,45.23
2017-11-01T03:25:51.061Z,46.00
2017-11-01T03:28:18.382Z,49.50
2017-11-01T03:30:45.707Z,50.30
2017-11-01T03:33:13.009Z,54.50
2017-11-01T03:35:40.325Z,52.93
2017-11-01T03:38:07.653Z,52.70
2017-11-01T03:40:35.980Z,59.37
2017-11-01T03:43:03.341Z,57.53
2017-11-01T03:45:30.690Z,46.27
2017-11-01T03:47:57.992Z,49.93
2017-11-01T03:50:25.629Z,52.90
2017-11-01T03:52:52.941Z,47.43
2017-11-01T03:55:21.302Z,44.80
2017-11-01T03:57:48.620Z,52.87
2017-11-01T04:00:15.945Z,55.13
2017-11-01T04:02:44.269Z,54.43
2017-11-01T04:05:11.598Z,51.73
2017-11-01T04:07:38.913Z,53.43
2017-11-01T04:10:06.256Z,57.60
2017-11-01T04:12:33.589Z,50.40
2017-11-01T04:15:00.964Z,62.57
2017-11-01T04:17:28.272Z,59.90
2017-11-01T04:19:56.587Z,57.47
2017-11-01T04:22:23.914Z,59.60
2017-11-01T04:24:51.236Z,55.87
2017-11-01T04:27:18.557Z,56.70
2017-11-01T04:29:45.886Z,54.40
2017-11-01T04:32:14.082Z,65.73
2017-11-01T04:34:41.393Z,69.67
2017-11-01T04:37:08.722Z,60.10
2017-11-01T04:39:36.025Z,55.63
2017-11-01T04:42:03.346Z,62.60
2017-11-01T04:44:30.657Z,64.93
2017-11-01T04:46:57.997Z,74.40
2017-11-01T04:49:25.782Z,63.40
2017-11-01T04:51:53.089Z,62.90
2017-11-01T04:54:20.431Z,58.63
2017-11-01T04:56:47.760Z,60.83
2017-11-01T04:59:15.502Z,56.50
2017-11-01T05:01:42.824Z,51.43
2017-11-01T05:04:10.317Z,57.80
2017-11-01T05:06:47.532Z,61.33
2017-11-01T05:09:14.877Z,51.00
2017-11-01T05:11:42.173Z,55.30
2017-11-01T05:14:16.224Z,48.10
2017-11-01T05:16:44.257Z,54.87
2017-11-01T05:19:11.580Z,43.50
2017-11-01T05:21:39.674Z,50.40
2017-11-01T05:24:07.127Z,57.80
2017-11-01T05:26:34.424Z,46.30
2017-11-01T05:29:01.741Z,50.73
2017-11-01T05:31:29.055Z,45.03
2017-11-01T05:33:56.381Z,47.60
2017-11-01T05:36:23.774Z,50.80
2017-11-01T05:38:51.113Z,45.80
2017-11-01T05:41:18.465Z,49.33
2017-11-01T05:43:46.536Z,45.30
2017-11-01T05:46:13.861Z,45.40
2017-11-01T05:48:41.165Z,45.23
2017-11-01T05:51:09.393Z,45.07
2017-11-01T05:53:36.741Z,44.80
2017-11-01T05:56:04.049Z,48.80
2017-11-01T05:58:31.357Z,42.50
2017-11-01T06:00:58.681Z,47.77
2017-11-01T06:03:26.004Z,41.33
2017-11-01T06:05:53.333Z,44.27
2017-11-01T06:08:20.942Z,38.43
2017-11-01T06:10:48.264Z,41.87
2017-11-01T06:13:15.594Z,42.00
2017-11-01T06:15:42.896Z,41.57
2017-11-01T06:18:10.227Z,46.10
2017-11-01T06:20:37.529Z,42.07
2017-11-01T06:23:04.865Z,43.40
2017-11-01T06:25:32.175Z,40.00
2017-11-01T06:27:59.496Z,36.37
2017-11-01T06:30:26.821Z,40.20
2017-11-01T06:32:54.435Z,38.70
2017-11-01T06:35:21.736Z,39.60
2017-11-01T06:37:49.085Z,43.00
2017-11-01T06:40:16.393Z,33.50
2017-11-01T06:42:43.721Z,37.10
2017-11-01T06:45:11.025Z,34.20
2017-11-01T06:47:38.345Z,32.47
2017-11-01T06:50:05.665Z,30.63
2017-11-01T06:52:32.974Z,34.03
2017-11-01T06:55:00.310Z,38.53
2017-11-01T06:57:27.627Z,34.53
2017-11-01T06:59:57.689Z,30.20
2017-11-01T07:02:25.039Z,31.57
2017-11-01T07:04:54.237Z,36.23
2017-11-01T07:07:21.562Z,32.87
2017-11-01T07:09:48.893Z,36.23
2017-11-01T07:12:16.253Z,36.63
2017-11-01T07:14:43.589Z,34.57
2017-11-01T07:17:11.110Z,35.57
2017-11-01T07:19:38.445Z,36.50
2017-11-01T07:22:05.766Z,35.20
2017-11-01T07:24:33.871Z,37.53
2017-11-01T07:27:01.188Z,36.07
2017-11-01T07:29:29.509Z,40.23
2017-11-01T07:31:56.841Z,33.73
2017-11-01T07:34:24.153Z,38.17
2017-11-01T07:36:51.508Z,42.77
2017-11-01T07:39:18.848Z,34.77
2017-11-01T07:41:46.164Z,41.53
2017-11-01T07:44:13.476Z,33.13
2017-11-01T07:46:40.803Z,35.80
2017-11-01T07:49:08.112Z,35.43
2017-11-01T07:51:36.340Z,38.03
2017-11-01T07:54:03.667Z,35.80
2017-11-01T07:56:31.017Z,34.20
2017-11-01T07:58:58.336Z,41.13
2017-11-01T08:01:25.769Z,42.27
2017-11-01T08:03:53.093Z,40.00
2017-11-01T08:06:21.365Z,38.60
2017-11-01T08:08:48.714Z,32.40
2017-11-01T08:11:16.021Z,34.77
2017-11-01T08:13:43.352Z,36.40
2017-11-01T08:16:10.662Z,32.47
2017-11-01T08:18:37.989Z,33.47
2017-11-01T08:21:05.298Z,29.47
2017-11-01T08:23:32.620Z,32.00
2017-11-01T08:26:05.654Z,31.93
2017-11-01T08:28:33.019Z,30.10
2017-11-01T08:31:00.317Z,30.43
2017-11-01T08:33:27.634Z,26.00
2017-11-01T08:35:54.957Z,24.67
2017-11-01T08:38:22.259Z,24.50
2017-11-01T08:40:51.208Z,25.40
2017-11-01T08:43:18.541Z,21.93
2017-11-01T08:45:45.958Z,20.43
2017-11-01T08:48:13.274Z,20.67
2017-11-01T08:50:40.598Z,21.80
2017-11-01T08:53:08.957Z,20.20
2017-11-01T08:55:36.320Z,24.83
2017-11-01T08:58:03.641Z,21.50
2017-11-01T09:00:31.899Z,21.37
2017-11-01T09:02:59.206Z,19.20
2017-11-01T09:05:27.680Z,18.73
2017-11-01T09:07:54.988Z,19.17
2017-11-01T09:10:22.322Z,17.93
2017-11-01T09:12:49.929Z,20.37
2017-11-01T09:15:17.242Z,18.43
2017-11-01T09:17:44.634Z,15.80
2017-11-01T09:20:11.942Z,16.00
2017-11-01T09:22:40.168Z,15.50
2017-11-01T09:25:07.493Z,16.07
2017-11-01T09:27:34.821Z,16.10
2017-11-01T09:30:02.109Z,15.10
2017-11-01T09:32:29.420Z,13.80
2017-11-01T09:34:56.720Z,13.70
2017-11-01T09:37:24.034Z,11.90
2017-11-01T09:39:51.327Z,12.37
2017-11-01T09:42:18.643Z,13.20
2017-11-01T09:44:46.069Z,12.13
2017-11-01T09:47:13.514Z,15.10
2017-11-01T09:49:40.829Z,13.33
2017-11-01T09:52:08.149Z,13.90
2017-11-01T09:54:35.529Z,11.60
2017-11-01T09:57:03.745Z,12.97
2017-11-01T09:59:31.091Z,15.53
2017-11-01T10:01:59.496Z,15.07
2017-11-01T10:04:26.812Z,16.23
2017-11-01T10:06:54.109Z,13.30
2017-11-01T10:09:21.427Z,16.30
2017-11-01T10:11:50.110Z,13.70
2017-11-01T10:14:17.428Z,16.97
2017-11-01T10:16:44.730Z,16.20
2017-11-01T10:19:12.064Z,16.63
2017-11-01T10:21:39.394Z,18.17
2017-11-01T10:24:06.754Z,19.67
2017-11-01T10:26:34.101Z,25.57
2017-11-01T10:29:01.396Z,21.90
2017-11-01T10:31:28.747Z,22.67
2017-11-01T10:33:56.045Z,23.90
2017-11-01T10:36:23.397Z,27.40
2017-11-01T10:38:50.741Z,25.10
2017-11-01T10:41:18.894Z,27.30
2017-11-01T10:43:46.214Z,22.77
2017-11-01T10:46:13.589Z,28.00
2017-11-01T10:48:40.893Z,29.37
2017-11-01T10:51:08.231Z,29.40
2017-11-01T10:53:35.565Z,28.47
2017-11-01T10:56:03.413Z,26.03
2017-11-01T10:58:31.675Z,33.53
2017-11-01T11:00:59.012Z,29.73
2017-11-01T11:03:26.327Z,32.57
2017-11-01T11:05:53.653Z,33.53
2017-11-01T11:08:21.837Z,36.97
2017-11-01T11:10:49.219Z,32.73
2017-11-01T11:13:16.541Z,42.37
2017-11-01T11:15:43.851Z,38.57
2017-11-01T11:18:11.540Z,42.37
2017-11-01T11:20:38.844Z,38.80
2017-11-01T11:23:06.169Z,37.63
2017-11-01T11:25:33.496Z,39.50
2017-11-01T11:28:00.833Z,41.63
2017-11-01T11:30:28.165Z,51.73
2017-11-01T11:32:55.509Z,48.57
2017-11-01T11:35:22.811Z,52.80
2017-11-01T11:37:50.143Z,43.73
2017-11-01T11:40:17.447Z,42.50
2017-11-01T11:42:44.748Z,49.70
2017-11-01T11:45:12.084Z,51.03
2017-11-01T11:47:39.528Z,44.73
2017-11-01T11:50:06.933Z,49.87
2017-11-01T11:52:34.392Z,51.40
2017-11-01T11:55:01.718Z,46.23
2017-11-01T11:57:29.033Z,46.83
2017-11-01T11:59:56.366Z,49.47
2017-11-01T12:02:23.679Z,52.73
2017-11-01T12:04:51.034Z,48.53
2017-11-01T12:07:18.378Z,50.77
2017-11-01T12:09:45.713Z,51.90
2017-11-01T12:12:13.050Z,54.77
2017-11-01T12:14:40.353Z,41.57
2017-11-01T12:17:07.676Z,45.00
2017-11-01T12:19:34.989Z,45.33
2017-11-01T12:22:02.318Z,50.77
2017-11-01T12:24:29.633Z,43.07
2017-11-01T12:26:56.957Z,48.00
2017-11-01T12:29:24.269Z,47.70
2017-11-01T12:31:51.597Z,48.43
2017-11-01T12:34:18.916Z,43.70
2017-11-01T12:36:46.333Z,41.77
2017-11-01T12:39:13.647Z,45.70
2017-11-01T12:41:40.973Z,39.80
2017-11-01T12:44:08.285Z,38.97
2017-11-01T12:46:35.613Z,42.40
2017-11-01T12:49:02.974Z,41.23
2017-11-01T12:51:30.289Z,43.10
2017-11-01T12:53:57.614Z,40.80
2017-11-01T12:56:26.643Z,41.53
2017-11-01T12:58:54.026Z,42.33
2017-11-01T13:01:21.341Z,41.10
2017-11-01T13:03:48.661Z,37.60
2017-11-01T13:06:16.264Z,37.47
2017-11-01T13:08:43.589Z,39.27
2017-11-01T13:11:10.896Z,40.60
2017-11-01T13:13:38.232Z,43.33
2017-11-01T13:16:05.577Z,45.17
2017-11-01T13:18:32.889Z,48.90
2017-11-01T13:21:00.198Z,44.20
2017-11-01T13:23:27.533Z,42.67
2017-11-01T13:25:55.557Z,47.87
2017-11-01T13:28:22.861Z,43.13
2017-11-01T13:30:50.219Z,40.77
2017-11-01T13:33:17.552Z,42.03
2017-11-01T13:35:44.878Z,46.07
2017-11-01T13:38:12.194Z,47.50
2017-11-01T13:40:39.520Z,44.50
2017-11-01T13:43:06.824Z,45.90
2017-11-01T13:45:34.212Z,45.40
2017-11-01T13:48:01.515Z,42.13
2017-11-01T13:50:28.853Z,45.17
2017-11-01T13:52:56.213Z,40.73
2017-11-01T13:55:23.549Z,42.90
2017-11-01T13:57:50.878Z,42.80
2017-11-01T14:00:18.258Z,46.23
2017-11-01T14:02:49.780Z,40.10
2017-11-01T14:05:17.173Z,46.43
2017-11-01T14:07:45.002Z,35.60
2017-11-01T14:10:12.298Z,48.83
2017-11-01T14:12:39.634Z,46.03
2017-11-01T14:15:06.976Z,44.33
2017-11-01T14:17:34.332Z,43.10
2017-11-01T14:20:01.677Z,51.13
2017-11-01T14:22:29.871Z,48.33
2017-11-01T14:24:57.250Z,48.00
2017-11-01T14:27:24.573Z,50.63
2017-11-01T14:29:52.410Z,53.50
2017-11-01T14:32:19.781Z,62.30
2017-11-01T14:34:47.886Z,52.27
2017-11-01T14:37:15.546Z,52.13
2017-11-01T14:39:42.894Z,48.07
2017-11-01T14:42:10.200Z,50.37
2017-11-01T14:44:37.542Z,50.77
2017-11-01T14:47:05.002Z,56.00
2017-11-01T14:49:32.349Z,48.77
2017-11-01T14:51:59.662Z,46.27
2017-11-01T14:54:27.021Z,44.30
2017-11-01T14:56:54.549Z,54.00
2017-11-01T14:59:21.883Z,46.40
2017-11-01T15:01:49.205Z,53.50
2017-11-01T15:04:16.544Z,41.80
2017-11-01T15:06:43.842Z,51.70
2017-11-01T15:09:11.161Z,52.00
2017-11-01T15:11:38.983Z,54.97
2017-11-01T15:14:06.306Z,47.20
2017-11-01T15:16:33.645Z,48.80
2017-11-01T15:19:00.966Z,48.13
2017-11-01T15:21:28.293Z,53.00
2017-11-01T15:23:55.648Z,54.47
2017-11-01T15:26:23.824Z,52.33
2017-11-01T15:28:51.117Z,55.27
2017-11-01T15:31:18.540Z,46.00
2017-11-01T15:33:45.858Z,52.77
2017-11-01T15:36:13.237Z,48.57
2017-11-01T15:38:40.909Z,59.80
2017-11-01T15:41:08.229Z,52.70
2017-11-01T15:43:35.526Z,54.43
2017-11-01T15:46:02.849Z,56.30
2017-11-01T15:48:30.152Z,59.03
2017-11-01T15:50:57.537Z,58.50
2017-11-01T15:53:24.845Z,56.87
2017-11-01T15:55:52.152Z,58.50
2017-11-01T15:58:19.476Z,60.87
2017-11-01T16:00:46.801Z,66.57
2017-11-01T16:03:14.121Z,64.77
2017-11-01T16:05:41.433Z,59.47
2017-11-01T16:08:08.764Z,68.77
2017-11-01T16:10:36.087Z,73.13
2017-11-01T16:13:03.469Z,68.73
2017-11-01T16:15:30.808Z,56.80
2017-11-01T16:17:58.159Z,69.87
2017-11-01T16:20:25.472Z,67.43
2017-11-01T16:22:52.868Z,69.57
2017-11-01T16:25:20.209Z,78.17
2017-11-01T16:27:47.601Z,68.70
2017-11-01T16:30:14.937Z,68.00
2017-11-01T16:32:42.248Z,68.03
2017-11-01T16:35:09.572Z,67.00
2017-11-01T16:37:36.893Z,70.20
2017-11-01T16:40:04.209Z,83.17
2017-11-01T16:42:31.550Z,72.63
2017-11-01T16:44:58.882Z,65.40
2017-11-01T16:47:26.246Z,74.53
2017-11-01T16:49:53.595Z,71.80
2017-11-01T16:52:20.904Z,71.90
2017-11-01T16:54:48.234Z,65.87
2017-11-01T16:57:15.532Z,73.07
2017-11-01T16:59:42.880Z,67.37
2017-11-01T17:02:10.217Z,64.63
2017-11-01T17:04:37.605Z,69.63
2017-11-01T17:07:04.951Z,64.50
2017-11-01T17:09:32.326Z,69.10
2017-11-01T17:11:59.668Z,63.73
2017-11-01T17:14:26.973Z,74.50
2017-11-01T17:16:55.193Z,75.80
2017-11-01T17:19:22.522Z,72.20
2017-11-01T17:21:49.845Z,67.60
2017-11-01T17:24:17.157Z,74.77
2017-11-01T17:26:44.476Z,70.20
2017-11-01T17:29:11.797Z,73.10
2017-11-01T17:31:39.121Z,64.30
2017-11-01T17:34:06.426Z,71.23
2017-11-01T17:36:33.742Z,69.23
2017-11-01T17:39:01.073Z,67.03
2017-11-01T17:41:28.404Z,77.47
2017-11-01T17:43:56.112Z,68.37
2017-11-01T17:46:23.424Z,74.73
2017-11-01T17:48:50.756Z,73.00
2017-11-01T17:51:18.069Z,72.10
2017-11-01T17:53:45.673Z,77.23
2017-11-01T17:56:12.961Z,66.20
2017-11-01T17:58:40.354Z,71.90
2017-11-01T18:01:07.698Z,66.67
2017-11-01T18:03:35.017Z,76.33
2017-11-01T18:06:02.324Z,72.67
2017-11-01T18:08:29.663Z,68.37
2017-11-01T18:10:56.983Z,65.30
2017-11-01T18:13:24.305Z,72.03
2017-11-01T18:15:51.618Z,69.23
2017-11-01T18:18:18.964Z,68.53
2017-11-01T18:20:46.268Z,67.37
2017-11-01T18:23:13.577Z,68.60
2017-11-01T18:25:40.903Z,69.33
2017-11-01T18:28:08.210Z,61.87
2017-11-01T18:30:35.538Z,60.33
2017-11-01T18:33:02.845Z,68.60
2017-11-01T18:35:30.161Z,59.10
2017-11-01T18:37:57.473Z,54.90
2017-11-01T18:40:24.813Z,61.70
2017-11-01T18:42:52.156Z,60.63
2017-11-01T18:45:19.479Z,58.17
2017-11-01T18:47:46.816Z,58.53
2017-11-01T18:50:14.140Z,61.17
2017-11-01T18:52:41.450Z,63.23
2017-11-01T18:55:08.796Z,56.30
2017-11-01T18:57:36.113Z,59.57
2017-11-01T19:00:03.442Z,58.60
2017-11-01T19:02:30.770Z,54.57
2017-11-01T19:04:58.075Z,55.50
2017-11-01T19:07:25.397Z,69.83
2017-11-01T19:09:52.704Z,56.57
2017-11-01T19:12:20.026Z,60.13
2017-11-01T19:14:47.362Z,59.60
2017-11-01T19:17:14.684Z,58.30
2017-11-01T19:19:42.193Z,58.13
2017-11-01T19:22:09.517Z,59.43
2017-11-01T19:24:36.834Z,57.73
2017-11-01T19:27:04.151Z,57.77
2017-11-01T19:29:31.474Z,53.43
2017-11-01T19:31:58.789Z,52.23
2017-11-01T19:34:26.120Z,54.63
2017-11-01T19:36:53.434Z,62.57
2017-11-01T19:39:20.757Z,62.37
2017-11-01T19:41:48.071Z,58.23
2017-11-01T19:44:15.388Z,58.13
2017-11-01T19:46:42.695Z,63.53
2017-11-01T19:49:10.021Z,61.80
2017-11-01T19:51:37.433Z,60.07
2017-11-01T19:54:04.764Z,59.10
2017-11-01T19:56:32.228Z,59.30
2017-11-01T19:58:59.569Z,64.90
2017-11-01T20:01:26.869Z,58.83
2017-11-01T20:03:54.569Z,63.00
2017-11-01T20:06:21.897Z,64.80
2017-11-01T20:08:49.217Z,59.43
2017-11-01T20:11:16.632Z,69.63
2017-11-01T20:13:43.957Z,59.70
2017-11-01T20:16:11.272Z,60.60
2017-11-01T20:18:38.637Z,52.23
2017-11-01T20:21:05.957Z,65.77
2017-11-01T20:23:33.293Z,54.77
2017-11-01T20:26:00.633Z,58.33
2017-11-01T20:28:27.933Z,56.07
2017-11-01T20:30:55.266Z,52.87
2017-11-01T20:33:22.574Z,48.17
2017-11-01T20:35:49.888Z,57.97
2017-11-01T20:38:17.242Z,57.17
2017-11-01T20:40:44.590Z,52.83
2017-11-01T20:43:11.893Z,50.07
2017-11-01T20:45:39.209Z,52.10
2017-11-01T20:48:06.510Z,52.60
2017-11-01T20:50:33.858Z,51.97
2017-11-01T20:53:01.162Z,54.27
2017-11-01T20:55:28.496Z,52.93
2017-11-01T20:57:55.789Z,51.00
2017-11-01T21:00:24.255Z,49.23
2017-11-01T21:02:51.550Z,43.00
2017-11-01T21:05:18.869Z,53.73
2017-11-01T21:07:47.136Z,55.37
2017-11-01T21:10:14.440Z,50.20
2017-11-01T21:12:41.770Z,51.20
2017-11-01T21:15:09.093Z,53.30
2017-11-01T21:17:36.559Z,46.13
2017-11-01T21:20:03.877Z,46.40
2017-11-01T21:22:31.193Z,46.93
2017-11-01T21:24:58.502Z,45.87
2017-11-01T21:27:25.948Z,49.17
2017-11-01T21:29:53.281Z,43.53
2017-11-01T21:32:20.609Z,39.93
2017-11-01T21:34:47.926Z,45.33
2017-11-01T21:37:15.277Z,41.83
2017-11-01T21:39:42.585Z,40.00
2017-11-01T21:42:09.942Z,46.13
2017-11-01T21:44:37.273Z,39.70
2017-11-01T21:47:04.565Z,46.03
2017-11-01T21:49:31.893Z,40.90
2017-11-01T21:51:59.217Z,41.20
2017-11-01T21:54:26.536Z,40.60
2017-11-01T21:56:53.846Z,40.20
2017-11-01T21:59:21.156Z,39.20
2017-11-01T22:01:49.546Z,42.67
2017-11-01T22:04:17.043Z,39.63
2017-11-01T22:06:44.342Z,39.17
2017-11-01T22:09:11.689Z,45.03
2017-11-01T22:11:38.996Z,37.67
2017-11-01T22:14:06.301Z,43.07
2017-11-01T22:16:33.630Z,44.60
2017-11-01T22:19:00.987Z,40.97
2017-11-01T22:21:28.309Z,36.43
2017-11-01T22:23:55.624Z,44.30
2017-11-01T22:26:22.945Z,43.57
2017-11-01T22:28:50.532Z,40.00
2017-11-01T22:31:17.852Z,34.03
2017-11-01T22:33:45.225Z,36.73
2017-11-01T22:36:12.540Z,36.70
2017-11-01T22:38:39.856Z,38.70
2017-11-01T22:41:07.180Z,39.33
2017-11-01T22:43:34.490Z,37.13
2017-11-01T22:46:01.801Z,38.60
2017-11-01T22:48:29.128Z,36.43
2017-11-01T22:50:56.432Z,37.07
2017-11-01T22:53:24.088Z,36.40
2017-11-01T22:55:51.438Z,33.60
2017-11-01T22:58:18.766Z,34.47
2017-11-01T23:00:46.079Z,33.33
2017-11-01T23:03:13.401Z,33.33
2017-11-01T23:05:40.713Z,34.40
2017-11-01T23:08:08.034Z,35.23
2017-11-01T23:10:39.102Z,35.27
2017-11-01T23:13:06.422Z,37.70
2017-11-01T23:15:33.762Z,33.67
2017-11-01T23:18:01.101Z,36.50
2017-11-01T23:20:28.393Z,32.77
2017-11-01T23:22:55.692Z,35.33
2017-11-01T23:25:23.012Z,31.93
2017-11-01T23:27:50.309Z,32.80
2017-11-01T23:30:17.625Z,38.53
2017-11-01T23:32:44.928Z,33.97
2017-11-01T23:35:19.165Z,38.37
2017-11-01T23:37:46.465Z,30.27
2017-11-01T23:40:13.823Z,30.93
2017-11-01T23:42:41.129Z,37.00
2017-11-01T23:45:08.458Z,38.40
2017-11-01T23:47:35.766Z,32.30
2017-11-01T23:50:03.089Z,32.17
2017-11-01T23:52:31.562Z,33.60
2017-11-01T23:54:58.878Z,32.40
2017-11-01T23:57:26.205Z,30.83
2017-11-01T23:59:53.514Z,34.90
